createdAt,value
2019-03-24T00:00:34.594Z,6.4
2019-03-24T00:01:42.156Z,6.4
2019-03-24T00:02:49.095Z,6.4
2019-03-24T00:03:56.027Z,6.3
2019-03-24T00:05:03.243Z,6.4
2019-03-24T00:06:10.440Z,6.4
2019-03-24T00:07:17.646Z,6.3
2019-03-24T00:08:24.840Z,6.3
2019-03-24T00:09:32.038Z,6.3
2019-03-24T00:10:39.247Z,6.3
2019-03-24T00:11:46.192Z,6.3
2019-03-24T00:12:53.407Z,6.3
2019-03-24T00:14:00.607Z,6.2
2019-03-24T00:15:07.802Z,6.2
2019-03-24T00:16:15.007Z,6.2
2019-03-24T00:17:22.206Z,6.2
2019-03-24T00:18:29.449Z,6.2
2019-03-24T00:19:36.651Z,6.1
2019-03-24T00:20:43.865Z,6.1
2019-03-24T00:21:51.085Z,6.1
2019-03-24T00:22:58.036Z,6.1
2019-03-24T00:24:05.246Z,6.1
2019-03-24T00:25:12.445Z,6
2019-03-24T00:26:19.370Z,6.1
2019-03-24T00:27:26.570Z,6.1
2019-03-24T00:28:33.769Z,6
2019-03-24T00:29:40.983Z,6
2019-03-24T00:30:48.185Z,6
2019-03-24T00:31:55.385Z,5.9
2019-03-24T00:33:02.596Z,5.9
2019-03-24T00:34:09.790Z,5.9
2019-03-24T00:35:16.994Z,5.9
2019-03-24T00:36:24.197Z,5.8
2019-03-24T00:37:31.124Z,5.8
2019-03-24T00:38:38.332Z,5.8
2019-03-24T00:39:45.529Z,5.8
2019-03-24T00:40:52.736Z,5.8
2019-03-24T00:41:59.956Z,5.8
2019-03-24T00:43:07.144Z,5.7
2019-03-24T00:44:14.345Z,5.7
2019-03-24T00:45:21.564Z,5.7
2019-03-24T00:46:28.772Z,5.7
2019-03-24T00:47:35.983Z,5.6
2019-03-24T00:48:43.183Z,5.7
2019-03-24T00:49:50.108Z,5.7
2019-03-24T00:50:57.310Z,5.6
2019-03-24T00:52:04.239Z,5.7
2019-03-24T00:53:11.441Z,5.6
2019-03-24T00:54:18.642Z,5.6
2019-03-24T00:55:25.843Z,5.6
2019-03-24T00:56:33.051Z,5.6
2019-03-24T00:57:40.258Z,5.6
2019-03-24T00:58:47.457Z,5.6
2019-03-24T00:59:54.657Z,5.6
2019-03-24T01:01:01.590Z,5.5
2019-03-24T01:02:08.513Z,5.5
2019-03-24T01:03:15.709Z,5.5
2019-03-24T01:04:22.642Z,5.5
2019-03-24T01:05:29.846Z,5.4
2019-03-24T01:06:37.053Z,5.4
2019-03-24T01:07:44.249Z,5.4
2019-03-24T01:08:51.450Z,5.3
2019-03-24T01:09:58.651Z,5.3
2019-03-24T01:11:05.580Z,5.3
2019-03-24T01:12:12.785Z,5.3
2019-03-24T01:13:20.026Z,5.3
2019-03-24T01:14:27.213Z,5.2
2019-03-24T01:15:34.415Z,5.2
2019-03-24T01:16:41.346Z,5.2
2019-03-24T01:17:48.547Z,5.2
2019-03-24T01:18:55.751Z,5.2
2019-03-24T01:20:02.678Z,5.1
2019-03-24T01:21:09.880Z,5.1
2019-03-24T01:22:17.086Z,5.1
2019-03-24T01:23:24.002Z,5.1
2019-03-24T01:24:30.943Z,5
2019-03-24T01:25:38.145Z,5.1
2019-03-24T01:26:45.342Z,5
2019-03-24T01:27:52.543Z,5.1
2019-03-24T01:28:59.765Z,5
2019-03-24T01:30:06.690Z,5
2019-03-24T01:31:13.893Z,5
2019-03-24T01:32:21.104Z,4.9
2019-03-24T01:33:28.044Z,4.8
2019-03-24T01:34:35.247Z,4.8
2019-03-24T01:35:42.492Z,4.7
2019-03-24T01:36:49.672Z,4.6
2019-03-24T01:37:56.602Z,4.6
2019-03-24T01:39:03.540Z,4.6
2019-03-24T01:40:10.740Z,4.6
2019-03-24T01:41:17.951Z,4.5
2019-03-24T01:42:25.153Z,4.5
2019-03-24T01:43:32.361Z,4.5
2019-03-24T01:44:39.284Z,4.4
2019-03-24T01:45:46.221Z,4.4
2019-03-24T01:47:04.374Z,4.4
2019-03-24T01:48:11.574Z,4.3
2019-03-24T01:49:18.777Z,4.3
2019-03-24T01:50:25.979Z,4.3
2019-03-24T01:51:33.179Z,4.3
2019-03-24T01:52:40.390Z,4.3
2019-03-24T01:53:47.322Z,4.3
2019-03-24T01:54:54.517Z,4.2
2019-03-24T01:56:01.441Z,4.2
2019-03-24T01:57:08.644Z,4.2
2019-03-24T01:58:15.566Z,4.2
2019-03-24T01:59:22.766Z,4.2
2019-03-24T02:00:29.962Z,4.2
2019-03-24T02:01:37.161Z,4.2
2019-03-24T02:02:44.366Z,4.2
2019-03-24T02:03:51.293Z,4.2
2019-03-24T02:04:58.229Z,4.2
2019-03-24T02:06:05.432Z,4.2
2019-03-24T02:07:12.631Z,4.2
2019-03-24T02:08:19.832Z,4.1
2019-03-24T02:09:27.037Z,4.1
2019-03-24T02:10:34.238Z,4.1
2019-03-24T02:11:41.437Z,4.1
2019-03-24T02:12:48.661Z,4.1
2019-03-24T02:13:55.853Z,4.1
2019-03-24T02:15:03.050Z,4
2019-03-24T02:16:10.363Z,4
2019-03-24T02:17:17.266Z,4
2019-03-24T02:18:24.470Z,4
2019-03-24T02:19:31.676Z,3.9
2019-03-24T02:20:38.873Z,3.9
2019-03-24T02:21:46.082Z,3.9
2019-03-24T02:22:53.284Z,3.9
2019-03-24T02:24:00.482Z,3.8
2019-03-24T02:25:07.684Z,3.8
2019-03-24T02:26:14.885Z,3.8
2019-03-24T02:27:22.088Z,3.8
2019-03-24T02:28:29.290Z,3.8
2019-03-24T02:29:36.488Z,3.9
2019-03-24T02:30:43.690Z,3.9
2019-03-24T02:31:50.888Z,3.9
2019-03-24T02:32:58.091Z,3.9
2019-03-24T02:34:05.294Z,3.9
2019-03-24T02:35:12.222Z,3.9
2019-03-24T02:36:19.428Z,4
2019-03-24T02:37:26.648Z,4.1
2019-03-24T02:38:33.834Z,4
2019-03-24T02:39:41.033Z,4.1
2019-03-24T02:40:47.966Z,4.1
2019-03-24T02:41:54.624Z,4.1
2019-03-24T02:43:01.560Z,4.1
2019-03-24T02:44:08.483Z,4.1
2019-03-24T02:45:15.684Z,4.1
2019-03-24T02:46:25.233Z,4.1
2019-03-24T02:47:32.586Z,4.1
2019-03-24T02:48:39.788Z,4
2019-03-24T02:49:47.009Z,4.1
2019-03-24T02:50:54.217Z,4.1
2019-03-24T02:52:01.417Z,4
2019-03-24T02:53:08.346Z,4
2019-03-24T02:54:15.543Z,4
2019-03-24T02:55:22.466Z,4
2019-03-24T02:56:29.678Z,4
2019-03-24T02:57:36.875Z,4
2019-03-24T02:58:44.093Z,4
2019-03-24T02:59:51.022Z,4
2019-03-24T03:00:58.227Z,4
2019-03-24T03:02:05.433Z,4
2019-03-24T03:03:12.632Z,4
2019-03-24T03:04:19.839Z,4
2019-03-24T03:05:27.028Z,4.1
2019-03-24T03:06:34.230Z,4
2019-03-24T03:07:41.432Z,4
2019-03-24T03:08:48.625Z,4
2019-03-24T03:09:55.827Z,4
2019-03-24T03:11:03.023Z,4
2019-03-24T03:12:10.264Z,4.1
2019-03-24T03:13:17.454Z,4.1
2019-03-24T03:14:24.650Z,4
2019-03-24T03:15:31.602Z,4.1
2019-03-24T03:16:39.918Z,4.1
2019-03-24T03:17:46.838Z,4.1
2019-03-24T03:18:54.039Z,4.1
2019-03-24T03:20:01.237Z,4.1
2019-03-24T03:21:08.434Z,4
2019-03-24T03:22:15.638Z,4
2019-03-24T03:23:22.287Z,3.9
2019-03-24T03:24:29.492Z,4
2019-03-24T03:25:36.418Z,3.9
2019-03-24T03:26:43.642Z,3.9
2019-03-24T03:27:50.580Z,3.9
2019-03-24T03:28:57.521Z,4.1
2019-03-24T03:30:04.733Z,4.2
2019-03-24T03:31:11.954Z,4.2
2019-03-24T03:32:19.153Z,4.2
2019-03-24T03:33:26.382Z,4.2
2019-03-24T03:34:33.580Z,4.1
2019-03-24T03:35:40.783Z,4.1
2019-03-24T03:36:47.978Z,4.1
2019-03-24T03:37:55.357Z,4.1
2019-03-24T03:39:02.631Z,4.1
2019-03-24T03:40:09.857Z,4
2019-03-24T03:41:17.218Z,4
2019-03-24T03:42:24.454Z,4
2019-03-24T03:43:31.652Z,4
2019-03-24T03:44:38.583Z,4
2019-03-24T03:45:45.799Z,4.1
2019-03-24T03:46:53.652Z,4
2019-03-24T03:48:00.590Z,4.1
2019-03-24T03:49:07.526Z,4.1
2019-03-24T03:50:14.728Z,4.1
2019-03-24T03:51:21.937Z,4.1
2019-03-24T03:52:29.121Z,4.1
2019-03-24T03:53:36.320Z,4.1
2019-03-24T03:54:43.249Z,4.1
2019-03-24T03:55:50.446Z,4
2019-03-24T03:56:57.651Z,4
2019-03-24T03:58:04.580Z,3.9
2019-03-24T03:59:11.526Z,4
2019-03-24T04:00:18.724Z,4
2019-03-24T04:01:25.923Z,4.1
2019-03-24T04:02:33.156Z,4
2019-03-24T04:03:40.346Z,4
2019-03-24T04:04:47.544Z,4
2019-03-24T04:05:54.743Z,3.9
2019-03-24T04:07:01.758Z,3.9
2019-03-24T04:08:09.005Z,3.8
2019-03-24T04:09:16.226Z,3.8
2019-03-24T04:10:23.423Z,3.7
2019-03-24T04:11:30.622Z,3.7
2019-03-24T04:12:37.853Z,3.7
2019-03-24T04:13:45.036Z,3.6
2019-03-24T04:14:52.236Z,3.6
2019-03-24T04:15:59.492Z,3.6
2019-03-24T04:17:08.452Z,3.6
2019-03-24T04:18:15.654Z,3.6
2019-03-24T04:19:22.581Z,3.6
2019-03-24T04:20:29.786Z,3.6
2019-03-24T04:21:36.994Z,3.6
2019-03-24T04:22:44.195Z,3.6
2019-03-24T04:23:51.127Z,3.5
2019-03-24T04:24:58.324Z,3.5
2019-03-24T04:26:05.546Z,3.5
2019-03-24T04:27:12.743Z,3.5
2019-03-24T04:28:19.680Z,3.5
2019-03-24T04:29:26.875Z,3.6
2019-03-24T04:30:34.067Z,3.6
2019-03-24T04:31:41.264Z,3.6
2019-03-24T04:32:48.201Z,3.6
2019-03-24T04:33:55.132Z,3.5
2019-03-24T04:35:02.337Z,3.5
2019-03-24T04:36:09.266Z,3.5
2019-03-24T04:37:16.471Z,3.5
2019-03-24T04:38:23.679Z,3.6
2019-03-24T04:39:30.871Z,3.5
2019-03-24T04:40:38.074Z,3.5
2019-03-24T04:41:45.282Z,3.5
2019-03-24T04:42:52.476Z,3.5
2019-03-24T04:43:59.681Z,3.4
2019-03-24T04:45:06.879Z,3.4
2019-03-24T04:46:13.814Z,3.3
2019-03-24T04:47:20.742Z,3.3
2019-03-24T04:48:27.941Z,3.3
2019-03-24T04:49:34.595Z,3.3
2019-03-24T04:50:41.528Z,3.2
2019-03-24T04:51:48.722Z,3.2
2019-03-24T04:52:55.924Z,3.2
2019-03-24T04:54:03.129Z,3.2
2019-03-24T04:55:10.337Z,3.1
2019-03-24T04:56:17.564Z,3.1
2019-03-24T04:57:24.763Z,3.1
2019-03-24T04:58:31.969Z,3.1
2019-03-24T04:59:38.900Z,3.1
2019-03-24T05:00:46.104Z,3.1
2019-03-24T05:01:53.312Z,3.1
2019-03-24T05:03:00.516Z,3
2019-03-24T05:04:07.715Z,3
2019-03-24T05:05:14.925Z,2.9
2019-03-24T05:06:22.121Z,3
2019-03-24T05:07:29.317Z,2.9
2019-03-24T05:08:36.515Z,2.9
2019-03-24T05:09:43.712Z,2.9
2019-03-24T05:10:50.922Z,2.9
2019-03-24T05:11:57.851Z,2.9
2019-03-24T05:13:05.054Z,2.9
2019-03-24T05:14:11.978Z,2.9
2019-03-24T05:15:19.179Z,2.9
2019-03-24T05:16:26.376Z,2.9
2019-03-24T05:17:33.575Z,2.9
2019-03-24T05:18:40.778Z,2.9
2019-03-24T05:19:47.975Z,2.9
2019-03-24T05:20:54.898Z,2.9
2019-03-24T05:22:02.107Z,3
2019-03-24T05:23:09.033Z,3
2019-03-24T05:24:15.958Z,2.9
2019-03-24T05:25:24.297Z,3
2019-03-24T05:26:31.491Z,3
2019-03-24T05:27:38.421Z,3
2019-03-24T05:28:45.623Z,3
2019-03-24T05:29:52.835Z,3
2019-03-24T05:31:00.037Z,3
2019-03-24T05:32:06.956Z,3
2019-03-24T05:33:14.158Z,3.1
2019-03-24T05:34:21.354Z,3.1
2019-03-24T05:35:28.552Z,3.2
2019-03-24T05:36:35.749Z,3.2
2019-03-24T05:37:42.950Z,3.3
2019-03-24T05:38:50.152Z,3.3
2019-03-24T05:39:57.345Z,3.3
2019-03-24T05:41:04.281Z,3.3
2019-03-24T05:42:11.478Z,3.3
2019-03-24T05:43:18.682Z,3.3
2019-03-24T05:44:25.881Z,3.4
2019-03-24T05:45:33.077Z,3.4
2019-03-24T05:46:40.278Z,3.5
2019-03-24T05:47:47.211Z,3.5
2019-03-24T05:48:54.418Z,3.5
2019-03-24T05:50:01.614Z,3.5
2019-03-24T05:51:08.810Z,3.5
2019-03-24T05:52:16.010Z,3.6
2019-03-24T05:53:23.213Z,3.6
2019-03-24T05:54:30.147Z,3.6
2019-03-24T05:55:37.105Z,3.7
2019-03-24T05:56:44.302Z,3.6
2019-03-24T05:57:51.505Z,3.7
2019-03-24T05:58:58.705Z,3.7
2019-03-24T06:00:05.908Z,3.8
2019-03-24T06:01:13.104Z,3.8
2019-03-24T06:02:19.769Z,3.8
2019-03-24T06:03:26.970Z,3.9
2019-03-24T06:04:34.169Z,4
2019-03-24T06:05:41.369Z,4
2019-03-24T06:06:48.027Z,4.1
2019-03-24T06:07:55.230Z,4.1
2019-03-24T06:09:02.433Z,4.2
2019-03-24T06:10:09.628Z,4.2
2019-03-24T06:11:16.829Z,4.2
2019-03-24T06:12:24.046Z,4.2
2019-03-24T06:13:31.246Z,4.3
2019-03-24T06:14:38.446Z,4.3
2019-03-24T06:15:45.653Z,4.3
2019-03-24T06:16:53.073Z,4.4
2019-03-24T06:18:00.001Z,4.4
2019-03-24T06:19:07.205Z,4.5
2019-03-24T06:20:14.410Z,4.5
2019-03-24T06:21:21.328Z,4.6
2019-03-24T06:22:28.256Z,4.6
2019-03-24T06:23:35.454Z,4.7
2019-03-24T06:24:42.650Z,4.7
2019-03-24T06:25:49.857Z,4.8
2019-03-24T06:26:57.058Z,4.8
2019-03-24T06:28:03.992Z,4.9
2019-03-24T06:29:11.202Z,4.9
2019-03-24T06:30:18.413Z,5
2019-03-24T06:31:25.339Z,5
2019-03-24T06:32:32.542Z,5.1
2019-03-24T06:33:39.740Z,5.1
2019-03-24T06:34:46.687Z,5.1
2019-03-24T06:35:53.615Z,5.1
2019-03-24T06:37:00.541Z,5.2
2019-03-24T06:38:07.739Z,5.2
2019-03-24T06:39:14.667Z,5.3
2019-03-24T06:40:21.869Z,5.3
2019-03-24T06:41:29.067Z,5.3
2019-03-24T06:42:35.993Z,5.4
2019-03-24T06:43:43.193Z,5.4
2019-03-24T06:44:50.394Z,5.4
2019-03-24T06:45:57.588Z,5.5
2019-03-24T06:47:04.786Z,5.5
2019-03-24T06:48:11.990Z,5.5
2019-03-24T06:49:19.185Z,5.6
2019-03-24T06:50:26.117Z,5.6
2019-03-24T06:51:33.319Z,5.7
2019-03-24T06:52:40.524Z,5.7
2019-03-24T06:53:47.728Z,5.7
2019-03-24T06:54:54.653Z,5.7
2019-03-24T06:56:01.858Z,5.8
2019-03-24T06:57:09.058Z,5.8
2019-03-24T06:58:16.265Z,5.8
2019-03-24T06:59:23.471Z,5.9
2019-03-24T07:00:30.675Z,5.9
2019-03-24T07:01:37.875Z,5.9
2019-03-24T07:02:45.077Z,5.9
2019-03-24T07:03:52.278Z,6
2019-03-24T07:04:59.479Z,6
2019-03-24T07:06:06.696Z,6
2019-03-24T07:07:13.907Z,6
2019-03-24T07:08:21.113Z,6.1
2019-03-24T07:09:28.327Z,6.1
2019-03-24T07:10:35.533Z,6.1
2019-03-24T07:11:42.464Z,6.2
2019-03-24T07:12:51.391Z,6.2
2019-03-24T07:13:58.736Z,6.2
2019-03-24T07:15:05.942Z,6.2
2019-03-24T07:16:12.879Z,6.2
2019-03-24T07:17:19.809Z,6.3
2019-03-24T07:18:27.007Z,6.3
2019-03-24T07:19:33.938Z,6.3
2019-03-24T07:20:40.864Z,6.4
2019-03-24T07:21:47.804Z,6.4
2019-03-24T07:22:55.003Z,6.4
2019-03-24T07:24:02.206Z,6.5
2019-03-24T07:25:09.404Z,6.5
2019-03-24T07:26:16.617Z,6.5
2019-03-24T07:27:23.819Z,6.5
2019-03-24T07:28:31.022Z,6.6
2019-03-24T07:29:38.227Z,6.6
2019-03-24T07:30:47.493Z,6.6
2019-03-24T07:31:54.692Z,6.7
2019-03-24T07:33:01.897Z,6.7
2019-03-24T07:34:08.861Z,6.7
2019-03-24T07:35:18.179Z,6.7
2019-03-24T07:36:25.510Z,6.7
2019-03-24T07:37:32.442Z,6.8
2019-03-24T07:38:39.643Z,6.8
2019-03-24T07:39:46.305Z,6.8
2019-03-24T07:40:53.508Z,6.9
2019-03-24T07:42:00.707Z,6.9
2019-03-24T07:43:07.659Z,6.9
2019-03-24T07:44:14.862Z,7
2019-03-24T07:45:22.103Z,7
2019-03-24T07:46:29.027Z,7
2019-03-24T07:47:36.228Z,7.1
2019-03-24T07:48:43.160Z,7.1
2019-03-24T07:49:50.361Z,7.1
2019-03-24T07:50:57.554Z,7.2
2019-03-24T07:52:04.761Z,7.2
2019-03-24T07:53:11.977Z,7.2
2019-03-24T07:54:18.901Z,7.2
2019-03-24T07:55:25.827Z,7.2
2019-03-24T07:56:33.027Z,7.2
2019-03-24T07:57:40.227Z,7.3
2019-03-24T07:58:47.439Z,7.3
2019-03-24T07:59:54.371Z,7.3
2019-03-24T08:01:01.562Z,7.4
2019-03-24T08:02:08.774Z,7.4
2019-03-24T08:03:15.976Z,7.4
2019-03-24T08:04:23.183Z,7.3
2019-03-24T08:05:30.105Z,7.3
2019-03-24T08:06:37.534Z,7.3
2019-03-24T08:07:44.456Z,7.4
2019-03-24T08:08:51.648Z,7.4
2019-03-24T08:09:58.856Z,7.4
2019-03-24T08:11:06.059Z,7.5
2019-03-24T08:12:13.019Z,7.5
2019-03-24T08:13:20.236Z,7.5
2019-03-24T08:14:27.600Z,7.6
2019-03-24T08:15:34.803Z,7.6
2019-03-24T08:16:41.731Z,7.6
2019-03-24T08:17:48.933Z,7.6
2019-03-24T08:18:55.865Z,7.6
2019-03-24T08:20:03.065Z,7.7
2019-03-24T08:21:09.994Z,7.7
2019-03-24T08:22:17.194Z,7.7
2019-03-24T08:23:24.392Z,7.7
2019-03-24T08:24:31.595Z,7.7
2019-03-24T08:25:38.524Z,7.7
2019-03-24T08:26:45.716Z,7.8
2019-03-24T08:27:52.956Z,7.7
2019-03-24T08:29:00.160Z,7.7
2019-03-24T08:30:07.085Z,7.8
2019-03-24T08:31:14.285Z,7.9
2019-03-24T08:32:21.493Z,7.9
2019-03-24T08:33:28.707Z,7.9
2019-03-24T08:34:35.371Z,8
2019-03-24T08:35:42.591Z,8
2019-03-24T08:36:49.794Z,8
2019-03-24T08:37:56.999Z,8
2019-03-24T08:39:04.207Z,8
2019-03-24T08:40:11.408Z,8
2019-03-24T08:41:18.610Z,8
2019-03-24T08:42:25.821Z,8.1
2019-03-24T08:43:32.744Z,8.1
2019-03-24T08:44:39.941Z,8.1
2019-03-24T08:45:46.872Z,8.1
2019-03-24T08:46:53.799Z,8.2
2019-03-24T08:48:01.005Z,8.2
2019-03-24T08:49:07.929Z,8.3
2019-03-24T08:50:15.126Z,8.4
2019-03-24T08:51:22.056Z,8.4
2019-03-24T08:52:29.261Z,8.5
2019-03-24T08:53:36.458Z,8.3
2019-03-24T08:54:43.658Z,8.3
2019-03-24T08:55:50.860Z,8.4
2019-03-24T08:56:58.066Z,8.4
2019-03-24T08:58:05.262Z,8.4
2019-03-24T08:59:12.486Z,8.4
2019-03-24T09:00:31.107Z,8.3
2019-03-24T09:01:38.362Z,8.3
2019-03-24T09:02:45.566Z,8.4
2019-03-24T09:03:52.788Z,8.4
2019-03-24T09:04:59.996Z,8.5
2019-03-24T09:06:06.931Z,8.5
2019-03-24T09:07:13.881Z,8.5
2019-03-24T09:08:20.826Z,8.6
2019-03-24T09:09:27.772Z,8.6
2019-03-24T09:10:34.978Z,8.6
2019-03-24T09:11:42.181Z,8.6
2019-03-24T09:12:49.386Z,8.6
2019-03-24T09:13:56.587Z,8.6
2019-03-24T09:15:03.527Z,8.7
2019-03-24T09:16:10.735Z,8.7
2019-03-24T09:17:17.668Z,8.8
2019-03-24T09:18:24.876Z,8.8
2019-03-24T09:19:32.079Z,8.8
2019-03-24T09:20:42.466Z,8.8
2019-03-24T09:21:49.664Z,8.8
2019-03-24T09:22:56.587Z,8.9
2019-03-24T09:24:03.232Z,9
2019-03-24T09:25:10.431Z,8.9
2019-03-24T09:26:17.634Z,9
2019-03-24T09:27:24.839Z,9
2019-03-24T09:28:32.039Z,9.1
2019-03-24T09:29:38.977Z,9.2
2019-03-24T09:30:46.179Z,9.3
2019-03-24T09:31:53.113Z,9.2
2019-03-24T09:33:00.056Z,9.2
2019-03-24T09:34:07.261Z,9.3
2019-03-24T09:35:14.480Z,9.3
2019-03-24T09:36:21.685Z,9.5
2019-03-24T09:37:28.915Z,9.6
2019-03-24T09:38:35.850Z,9.7
2019-03-24T09:39:43.056Z,9.7
2019-03-24T09:40:50.261Z,9.8
2019-03-24T09:41:57.462Z,9.8
2019-03-24T09:43:04.666Z,9.8
2019-03-24T09:44:11.910Z,9.8
2019-03-24T09:45:19.114Z,10
2019-03-24T09:46:25.768Z,10.1
2019-03-24T09:47:32.688Z,10.2
2019-03-24T09:48:39.630Z,10.1
2019-03-24T09:49:46.302Z,10.1
2019-03-24T09:50:53.508Z,9.8
2019-03-24T09:52:00.715Z,9.7
2019-03-24T09:53:07.645Z,9.6
2019-03-24T09:54:14.848Z,9.8
2019-03-24T09:55:22.058Z,10
2019-03-24T09:56:29.267Z,10.1
2019-03-24T09:57:36.240Z,10.2
2019-03-24T09:58:43.443Z,10.4
2019-03-24T09:59:50.653Z,10.5
2019-03-24T10:00:57.858Z,10.5
2019-03-24T10:02:05.059Z,10.3
2019-03-24T10:03:11.987Z,10.4
2019-03-24T10:04:19.190Z,10.4
2019-03-24T10:05:26.402Z,10.5
2019-03-24T10:06:33.338Z,10.5
2019-03-24T10:07:40.544Z,10.4
2019-03-24T10:08:48.045Z,10.2
2019-03-24T10:09:55.248Z,10.1
2019-03-24T10:11:02.453Z,10.2
2019-03-24T10:12:09.674Z,10.2
2019-03-24T10:13:16.605Z,10.3
2019-03-24T10:14:23.807Z,10.3
2019-03-24T10:15:31.016Z,10.4
2019-03-24T10:16:38.220Z,10.5
2019-03-24T10:17:45.418Z,10.4
2019-03-24T10:18:52.633Z,10.3
2019-03-24T10:19:59.841Z,10.3
2019-03-24T10:21:07.103Z,10.3
2019-03-24T10:22:14.036Z,10.4
2019-03-24T10:23:21.246Z,10.2
2019-03-24T10:24:27.913Z,10.3
2019-03-24T10:25:35.130Z,10.3
2019-03-24T10:26:42.337Z,10.2
2019-03-24T10:27:49.538Z,10.3
2019-03-24T10:28:56.748Z,10.5
2019-03-24T10:30:03.674Z,10.4
2019-03-24T10:31:10.885Z,10.4
2019-03-24T10:32:18.093Z,10.4
2019-03-24T10:33:25.296Z,10.4
2019-03-24T10:34:32.502Z,10.6
2019-03-24T10:35:39.434Z,10.7
2019-03-24T10:36:46.368Z,10.6
2019-03-24T10:37:53.570Z,10.8
2019-03-24T10:39:00.777Z,11
2019-03-24T10:40:07.978Z,11.2
2019-03-24T10:41:14.912Z,11.3
2019-03-24T10:42:22.121Z,11.2
2019-03-24T10:43:29.332Z,11.1
2019-03-24T10:44:36.326Z,11.2
2019-03-24T10:45:43.517Z,11.2
2019-03-24T10:46:50.722Z,11.1
2019-03-24T10:47:57.935Z,11.1
2019-03-24T10:49:05.143Z,11
2019-03-24T10:50:14.293Z,10.9
2019-03-24T10:51:21.765Z,11
2019-03-24T10:52:28.980Z,11.3
2019-03-24T10:53:50.825Z,11.3
2019-03-24T10:54:58.053Z,11.5
2019-03-24T10:56:04.973Z,11.5
2019-03-24T10:57:12.178Z,11.4
2019-03-24T10:58:19.391Z,11.2
2019-03-24T10:59:26.598Z,11.2
2019-03-24T11:00:33.805Z,11.4
2019-03-24T11:01:41.013Z,11.6
2019-03-24T11:02:48.219Z,11.7
2019-03-24T11:03:55.161Z,11.9
2019-03-24T11:05:02.093Z,12.1
2019-03-24T11:06:09.297Z,12.2
2019-03-24T11:07:16.503Z,11.8
2019-03-24T11:08:23.718Z,11.8
2019-03-24T11:09:30.916Z,11.9
2019-03-24T11:10:38.122Z,12
2019-03-24T11:11:45.335Z,12.1
2019-03-24T11:12:52.556Z,12.2
2019-03-24T11:13:59.496Z,12.4
2019-03-24T11:15:06.710Z,12.4
2019-03-24T11:16:13.919Z,12.3
2019-03-24T11:17:21.156Z,12.3
2019-03-24T11:18:28.089Z,12.2
2019-03-24T11:19:36.552Z,12.3
2019-03-24T11:20:43.756Z,12.3
2019-03-24T11:21:50.964Z,12.1
2019-03-24T11:22:58.171Z,12
2019-03-24T11:24:05.385Z,12.2
2019-03-24T11:25:12.599Z,12.3
2019-03-24T11:26:19.808Z,12.6
2019-03-24T11:27:26.471Z,12.6
2019-03-24T11:28:33.684Z,12.7
2019-03-24T11:29:40.896Z,12.8
2019-03-24T11:30:47.871Z,12.5
2019-03-24T11:31:54.805Z,12.6
2019-03-24T11:33:02.018Z,12.7
2019-03-24T11:34:09.221Z,12.7
2019-03-24T11:35:16.428Z,12.6
2019-03-24T11:36:23.631Z,12.5
2019-03-24T11:37:30.837Z,12.6
2019-03-24T11:38:37.778Z,12.9
2019-03-24T11:39:44.728Z,13.1
2019-03-24T11:40:51.935Z,13.2
2019-03-24T11:41:58.867Z,13.2
2019-03-24T11:43:05.856Z,13.4
2019-03-24T11:44:13.076Z,13.3
2019-03-24T11:45:20.288Z,13.3
2019-03-24T11:46:27.501Z,13.3
2019-03-24T11:47:34.712Z,12.9
2019-03-24T11:48:41.649Z,12.8
2019-03-24T11:49:49.710Z,12.7
2019-03-24T11:50:56.933Z,12.9
2019-03-24T11:52:04.179Z,13.1
2019-03-24T11:53:11.369Z,13.1
2019-03-24T11:54:18.578Z,13.1
2019-03-24T11:55:25.788Z,13
2019-03-24T11:56:32.995Z,12.7
2019-03-24T11:57:40.211Z,12.5
2019-03-24T11:58:47.562Z,12.3
2019-03-24T11:59:55.043Z,12.3
2019-03-24T12:01:01.983Z,12.4
2019-03-24T12:02:08.917Z,12.7
2019-03-24T12:03:16.128Z,12.8
2019-03-24T12:04:23.350Z,12.8
2019-03-24T12:05:30.277Z,12.8
2019-03-24T12:06:37.495Z,12.9
2019-03-24T12:07:44.725Z,12.7
2019-03-24T12:08:51.966Z,12.5
2019-03-24T12:09:59.169Z,12.7
2019-03-24T12:11:06.595Z,12.9
2019-03-24T12:12:13.539Z,13.1
2019-03-24T12:13:20.747Z,13
2019-03-24T12:14:27.949Z,12.6
2019-03-24T12:15:35.152Z,12.4
2019-03-24T12:16:42.368Z,12
2019-03-24T12:17:49.581Z,12
2019-03-24T12:18:56.517Z,12.3
2019-03-24T12:20:03.726Z,12.6
2019-03-24T12:21:10.929Z,12.6
2019-03-24T12:22:18.141Z,12.5
2019-03-24T12:23:25.091Z,12.4
2019-03-24T12:24:32.310Z,12.5
2019-03-24T12:25:39.517Z,12.4
2019-03-24T12:26:46.725Z,12.3
2019-03-24T12:27:53.935Z,12.5
2019-03-24T12:29:01.152Z,12.9
2019-03-24T12:30:08.377Z,13.3
2019-03-24T12:31:15.585Z,13.6
2019-03-24T12:32:22.526Z,13.8
2019-03-24T12:33:29.746Z,13.5
2019-03-24T12:34:36.689Z,13
2019-03-24T12:35:43.903Z,12.9
2019-03-24T12:36:51.120Z,12.7
2019-03-24T12:37:58.332Z,12.8
2019-03-24T12:39:05.273Z,13
2019-03-24T12:40:12.489Z,13.3
2019-03-24T12:41:19.435Z,13.6
2019-03-24T12:42:26.650Z,13.8
2019-03-24T12:43:33.593Z,13.1
2019-03-24T12:44:40.256Z,12.9
2019-03-24T12:45:47.476Z,12.8
2019-03-24T12:46:54.428Z,13.1
2019-03-24T12:48:01.648Z,13.4
2019-03-24T12:49:08.869Z,13.6
2019-03-24T12:50:16.082Z,13.7
2019-03-24T12:51:23.299Z,13.6
2019-03-24T12:52:30.251Z,13.9
2019-03-24T12:53:37.465Z,14
2019-03-24T12:54:44.682Z,13.8
2019-03-24T12:55:51.901Z,13.9
2019-03-24T12:56:59.122Z,13.9
2019-03-24T12:58:06.335Z,13.7
2019-03-24T12:59:13.585Z,13.4
2019-03-24T13:00:20.515Z,13.3
2019-03-24T13:01:27.213Z,13.5
2019-03-24T13:02:34.430Z,13.7
2019-03-24T13:03:41.638Z,13.9
2019-03-24T13:04:48.577Z,14
2019-03-24T13:05:55.784Z,14.1
2019-03-24T13:07:02.726Z,14.4
2019-03-24T13:08:09.936Z,14.5
2019-03-24T13:09:17.140Z,14.5
2019-03-24T13:10:23.793Z,14.6
2019-03-24T13:11:31.013Z,14.6
2019-03-24T13:12:38.229Z,14.7
2019-03-24T13:13:45.446Z,15
2019-03-24T13:14:52.568Z,15.3
2019-03-24T13:15:59.803Z,15.4
2019-03-24T13:17:07.018Z,15.5
2019-03-24T13:18:13.963Z,15.6
2019-03-24T13:19:20.903Z,15.7
2019-03-24T13:20:38.921Z,15.7
2019-03-24T13:21:46.165Z,15.8
2019-03-24T13:22:53.391Z,15.9
2019-03-24T13:24:00.612Z,16
2019-03-24T13:25:07.834Z,15.9
2019-03-24T13:26:14.779Z,15.5
2019-03-24T13:27:22.000Z,15
2019-03-24T13:28:29.219Z,14.8
2019-03-24T13:29:36.437Z,14.6
2019-03-24T13:30:43.110Z,14.7
2019-03-24T13:31:50.399Z,14.9
2019-03-24T13:32:57.590Z,14.9
2019-03-24T13:34:04.524Z,15
2019-03-24T13:35:11.742Z,15.1
2019-03-24T13:36:18.956Z,15.3
2019-03-24T13:37:26.168Z,15.4
2019-03-24T13:38:33.374Z,15.4
2019-03-24T13:39:40.581Z,15.4
2019-03-24T13:40:47.257Z,15.2
2019-03-24T13:41:54.205Z,14.9
2019-03-24T13:43:01.146Z,14.8
2019-03-24T13:44:08.374Z,14.8
2019-03-24T13:45:15.582Z,14.8
2019-03-24T13:46:22.800Z,14.5
2019-03-24T13:47:30.022Z,14.4
2019-03-24T13:48:37.238Z,14.7
2019-03-24T13:49:44.453Z,14.9
2019-03-24T13:50:51.665Z,15
2019-03-24T13:51:58.876Z,14.5
2019-03-24T13:53:06.095Z,14.3
2019-03-24T13:54:13.025Z,14.3
2019-03-24T13:55:20.237Z,14.5
2019-03-24T13:56:27.173Z,14.7
2019-03-24T13:57:34.540Z,14.8
2019-03-24T13:58:41.956Z,14.9
2019-03-24T13:59:48.895Z,15.1
2019-03-24T14:00:55.837Z,15.1
2019-03-24T14:02:03.062Z,15
2019-03-24T14:03:10.273Z,14.9
2019-03-24T14:04:17.217Z,14.7
2019-03-24T14:05:24.432Z,14.5
2019-03-24T14:06:31.647Z,14.4
2019-03-24T14:07:38.855Z,14.5
2019-03-24T14:08:46.073Z,14.4
2019-03-24T14:09:53.011Z,14.4
2019-03-24T14:11:00.225Z,14.5
2019-03-24T14:12:07.436Z,14.4
2019-03-24T14:13:14.646Z,14.4
2019-03-24T14:14:21.856Z,14.3
2019-03-24T14:15:28.786Z,14.3
2019-03-24T14:16:35.726Z,14.2
2019-03-24T14:17:42.944Z,14.1
2019-03-24T14:18:50.155Z,14
2019-03-24T14:19:57.362Z,13.9
2019-03-24T14:21:04.572Z,13.8
2019-03-24T14:22:11.235Z,13.8
2019-03-24T14:23:18.176Z,13.8
2019-03-24T14:24:25.114Z,13.8
2019-03-24T14:25:32.345Z,13.6
2019-03-24T14:26:39.563Z,13.5
2019-03-24T14:27:46.773Z,13.4
2019-03-24T14:28:53.987Z,13.3
2019-03-24T14:30:00.932Z,13.3
2019-03-24T14:31:07.892Z,13.3
2019-03-24T14:32:15.158Z,13.2
2019-03-24T14:33:22.083Z,13.1
2019-03-24T14:34:29.296Z,13.1
2019-03-24T14:35:36.233Z,13.2
2019-03-24T14:36:43.463Z,13.2
2019-03-24T14:37:50.671Z,13.3
2019-03-24T14:38:57.880Z,13.3
2019-03-24T14:40:05.088Z,13.3
2019-03-24T14:41:12.026Z,13.4
2019-03-24T14:42:19.236Z,13.5
2019-03-24T14:43:26.165Z,13.5
2019-03-24T14:44:33.374Z,13.4
2019-03-24T14:45:40.584Z,13.3
2019-03-24T14:46:47.812Z,13.2
2019-03-24T14:47:54.746Z,13.3
2019-03-24T14:49:01.957Z,13.4
2019-03-24T14:50:09.167Z,13.5
2019-03-24T14:51:16.105Z,13.6
2019-03-24T14:52:23.043Z,13.7
2019-03-24T14:53:29.989Z,13.7
2019-03-24T14:54:37.406Z,13.6
2019-03-24T14:55:44.620Z,13.7
2019-03-24T14:56:51.838Z,13.7
2019-03-24T14:57:59.054Z,13.6
2019-03-24T14:59:06.260Z,13.6
2019-03-24T15:00:13.467Z,13.7
2019-03-24T15:01:20.679Z,13.7
2019-03-24T15:02:27.893Z,13.6
2019-03-24T15:03:35.091Z,13.6
2019-03-24T15:04:42.296Z,13.6
2019-03-24T15:05:49.507Z,13.6
2019-03-24T15:06:56.720Z,13.5
2019-03-24T15:08:03.933Z,13.3
2019-03-24T15:09:10.870Z,13.3
2019-03-24T15:10:18.074Z,13.3
2019-03-24T15:11:24.782Z,13.2
2019-03-24T15:12:31.997Z,13.2
2019-03-24T15:13:39.205Z,13.3
2019-03-24T15:14:46.137Z,13.1
2019-03-24T15:15:53.072Z,13.1
2019-03-24T15:17:00.283Z,13.1
2019-03-24T15:18:07.256Z,13.1
2019-03-24T15:19:14.463Z,13
2019-03-24T15:20:21.674Z,13
2019-03-24T15:21:28.609Z,13
2019-03-24T15:22:35.825Z,13.1